Latest Weather Observations for Charles Point

IDD60901

Issued at 6:01 pm CST Saturday 18 November 2017 (issued every 10 minutes, with the page automatically refreshed every 10 minutes)

About weather observations | Map of Darwin area stations | Latest observations for Darwin area | Other Formats
Station Details ID: 014031 Name: CHARLES POINT Lat: -12.39 Lon: 130.63 Height: 14.0 m
Data from the previous 72 hours. | See also: Recent months for locations in Northern Territory
Date/Time
CST
Temp
°C
App
Temp
°C
Dew
Point
°C
Rel
Hum
%
Delta-T
°C
Wind Press
QNH
hPa
Press
MSL
hPa
Rain since
9am
mm
Dir  Spd
km/h
Gust
km/h
Spd
kts
Gust
kts
18/06:00pm 31.3 32.8 23.7 64 5.3 NE 22 32 12 17 1006.4 1006.2 0.0
18/05:30pm 31.5 32.9 23.6 63 5.5 NE 22 32 12 17 1005.8 1005.6 0.0
18/05:00pm 31.5 33.3 23.6 63 5.5 NE 20 30 11 16 1005.7 1005.5 0.0
18/04:30pm 31.7 33.1 23.5 62 5.7 NE 22 30 12 16 1005.6 1005.4 0.0
18/04:00pm 32.0 33.1 23.0 59 6.2 NE 22 30 12 16 1005.8 1005.6 0.0
18/03:30pm 32.2 33.7 23.7 61 5.9 NE 22 32 12 17 1006.0 1005.8 0.0
18/03:00pm 32.6 35.0 24.6 62 5.6 NE 20 30 11 16 1006.3 1006.1 0.0
18/02:30pm 32.2 34.2 24.0 62 5.7 NE 20 32 11 17 1006.5 1006.3 0.0
18/02:00pm 32.2 34.2 24.5 64 5.4 NNE 22 30 12 16 1006.8 1006.6 0.0
18/01:30pm 32.3 35.1 24.9 65 5.2 NE 19 26 10 14 1007.3 1007.1 0.0
18/01:00pm 32.4 36.0 25.0 65 5.2 NE 15 24 8 13 1007.8 1007.6 0.0
18/12:30pm 32.1 35.9 24.7 65 5.2 NE 13 19 7 10 1008.2 1008.0 0.0
18/12:00pm 31.9 35.2 24.5 65 5.2 NE 15 20 8 11 1008.6 1008.4 0.0
18/11:30am 32.1 35.5 24.7 65 5.2 NE 15 20 8 11 1009.0 1008.8 0.0
18/11:00am 31.6 35.8 24.7 67 4.8 ENE 11 19 6 10 1009.5 1009.3 0.0
18/10:30am 31.6 36.5 25.2 69 4.5 E 9 19 5 10 1009.7 1009.5 0.0
18/10:00am 30.9 34.8 24.3 68 4.6 E 11 19 6 10 1009.8 1009.6 0.0
18/09:30am 30.3 34.4 24.0 69 4.4 E 9 17 5 9 1009.7 1009.5 0.0
18/09:00am 30.3 34.4 24.0 69 4.4 E 9 15 5 8 1009.5 1009.3 0.0
18/08:30am 29.9 34.2 23.6 69 4.4 ESE 7 17 4 9 1009.3 1009.1 0.0
18/08:00am 28.9 33.3 23.8 74 3.5 ESE 7 15 4 8 1009.2 1009.0 0.0
18/07:30am 27.8 31.9 23.2 76 3.1 SE 7 15 4 8 1008.6 1008.4 0.0
18/07:00am 26.6 30.7 23.3 82 2.3 SSE 7 11 4 6 1008.2 1008.0 0.0
18/06:30am 25.9 29.8 23.0 84 2.0 SE 7 11 4 6 1008.0 1007.8 0.0
18/06:00am 25.8 29.8 23.1 85 1.8 SSE 7 11 4 6 1007.7 1007.5 0.0
18/05:30am 25.9 30.0 23.2 85 1.8 SSE 7 11 4 6 1007.5 1007.3 0.0
18/05:00am 26.1 30.3 23.4 85 1.8 SSE 7 11 4 6 1007.3 1007.1 0.0
18/04:30am 26.3 30.6 23.6 85 1.9 S 7 9 4 5 1007.3 1007.1 0.0
18/04:00am 26.3 30.7 23.8 86 1.7 SSE 7 11 4 6 1007.5 1007.3 0.0
18/03:30am 26.4 31.1 23.9 86 1.7 SSE 6 11 3 6 1007.7 1007.5 0.0
18/03:00am 27.1 31.8 24.0 83 2.1 SSE 6 7 3 4 1007.6 1007.4 0.0
18/02:30am 27.4 32.3 24.3 83 2.2 SE 6 7 3 4 1007.6 1007.4 0.0
18/02:00am 27.7 32.6 24.3 82 2.4 SE 6 11 3 6 1008.1 1007.9 0.0
18/01:30am 27.9 32.4 23.9 79 2.8 SE 7 11 4 6 1008.4 1008.2 0.0
18/01:00am 28.1 32.6 23.9 78 2.9 SE 7 11 4 6 1008.9 1008.7 0.0
18/12:30am 28.3 32.9 24.1 78 2.9 ESE 7 11 4 6 1009.2 1009.0 0.0
18/12:00am 29.2 34.0 24.5 76 3.3 E 7 15 4 8 1009.5 1009.3 0.0
 
Date/Time
CST
Temp
°C
App
Temp
°C
Dew
Point
°C
Rel
Hum
%
Delta-T
°C
Wind Press
QNH
hPa
Press
MSL
hPa
Rain since
9am
mm
Dir  Spd
km/h
Gust
km/h
Spd
kts
Gust
kts
17/11:30pm 29.6 33.3 23.3 69 4.3 NE 9 15 5 8 1009.4 1009.2 0.0
17/11:00pm 29.6 33.4 24.0 72 3.9 NE 11 17 6 9 1009.2 1009.0 0.0
17/10:30pm 29.5 33.1 24.4 74 3.6 NE 13 19 7 10 1009.0 1008.8 0.0
17/10:00pm 29.6 33.4 24.0 72 3.9 NE 11 20 6 11 1008.7 1008.5 0.0
17/09:30pm 29.6 33.6 23.8 71 4.0 ENE 9 17 5 9 1008.9 1008.7 0.0
17/09:00pm 29.8 33.2 23.3 68 4.5 ENE 11 17 6 9 1008.8 1008.6 0.0
17/08:30pm 29.9 32.6 22.9 66 4.8 NE 13 17 7 9 1008.3 1008.1 0.0
17/08:00pm 29.8 33.0 23.0 67 4.7 NE 11 17 6 9 1007.7 1007.5 0.0
17/07:30pm 29.8 32.6 22.3 64 5.1 NE 11 15 6 8 1007.0 1006.8 0.0
17/07:00pm 29.7 32.5 23.6 69 4.2 NE 15 20 8 11 1007.0 1006.8 0.0
17/06:30pm 29.6 32.3 24.2 73 3.8 NE 17 22 9 12 1007.0 1006.8 0.0
17/06:00pm 29.8 32.2 23.7 70 4.2 NE 17 20 9 11 1007.0 1006.8 0.0
17/05:30pm 29.8 32.3 24.7 74 3.6 NE 20 30 11 16 1006.7 1006.5 0.0
17/05:00pm 30.5 32.5 23.9 68 4.6 NE 20 28 11 15 1006.2 1006.0 0.0
17/04:30pm 31.3 33.9 23.9 64 5.2 NE 17 24 9 13 1006.1 1005.9 0.0
17/04:00pm 30.7 32.7 23.6 66 4.9 NE 19 30 10 16 1006.1 1005.9 0.0
17/03:30pm 31.1 34.5 24.7 68 4.5 NNE 15 22 8 12 1006.3 1006.1 0.0
17/03:00pm 31.0 35.4 25.1 71 4.2 NNE 11 17 6 9 1006.9 1006.7 0.0
17/02:30pm 31.1 36.0 25.2 71 4.2 NNE 9 15 5 8 1007.3 1007.1 0.0
17/02:00pm 30.6 34.7 24.5 70 4.3 NNE 11 17 6 9 1007.7 1007.5 0.0
17/01:30pm 31.1 35.2 24.5 68 4.6 NE 11 15 6 8 1007.8 1007.6 0.0
17/01:00pm 31.2 36.0 25.1 70 4.3 ENE 9 17 5 9 1008.1 1007.9 0.0
17/12:30pm 31.1 35.2 24.0 66 4.9 NE 9 15 5 8 1008.5 1008.3 0.0
17/12:00pm 30.6 35.3 24.3 69 4.4 NE 7 11 4 6 1008.8 1008.6 0.0
17/11:30am 30.7 35.5 24.4 69 4.4 ENE 7 13 4 7 1009.1 1008.9 0.0
17/11:00am 31.1 34.7 23.7 64 5.1 E 11 20 6 11 1009.3 1009.1 0.0
17/10:30am 30.8 34.8 24.4 68 4.5 E 11 19 6 10 1009.4 1009.2 0.0
17/10:00am 30.2 34.3 23.9 69 4.4 E 9 17 5 9 1009.4 1009.2 0.0
17/09:30am 29.6 33.7 23.3 69 4.3 ESE 7 15 4 8 1009.5 1009.3 0.0
17/09:00am 29.1 33.1 23.8 73 3.7 SE 9 19 5 10 1009.4 1009.2 19.4
17/08:30am 28.2 32.7 24.0 78 2.9 SE 7 15 4 8 1009.5 1009.3 19.4
17/08:00am 27.4 31.6 24.1 82 2.3 SSE 9 15 5 8 1009.5 1009.3 19.4
17/07:30am 26.8 31.4 24.1 85 1.9 SSE 7 13 4 7 1009.4 1009.2 19.4
17/07:00am 26.3 30.7 23.8 86 1.7 SSE 7 11 4 6 1008.9 1008.7 19.4
17/06:30am 26.0 29.8 23.5 86 1.7 SSE 9 15 5 8 1008.6 1008.4 19.4
17/06:00am 25.9 29.9 23.8 88 1.4 SSE 9 15 5 8 1008.5 1008.3 19.4
17/05:30am 25.8 29.6 23.5 87 1.6 SSE 9 13 5 7 1008.4 1008.2 19.4
17/05:00am 25.7 29.9 23.4 87 1.6 SSE 7 15 4 8 1008.2 1008.0 19.4
17/04:30am 25.7 29.0 23.2 86 1.7 SSE 11 17 6 9 1008.2 1008.0 19.4
17/04:00am 25.6 29.1 22.9 85 1.8 SSE 9 15 5 8 1008.2 1008.0 19.4
17/03:30am 25.7 29.4 23.2 86 1.7 SSE 9 13 5 7 1007.9 1007.7 19.4
17/03:00am 25.8 29.9 23.3 86 1.7 SE 7 13 4 7 1007.9 1007.7 19.4
17/02:30am 26.7 30.6 23.0 80 2.5 ESE 7 11 4 6 1008.0 1007.8 19.4
17/02:00am 27.8 32.2 23.4 77 3.0 E 6 11 3 6 1008.5 1008.3 19.4
17/01:30am 28.0 31.0 22.7 73 3.6 ENE 11 19 6 10 1008.4 1008.2 19.4
17/01:00am 27.8 30.6 23.0 75 3.3 NE 13 24 7 13 1008.4 1008.2 19.4
17/12:30am 27.4 32.9 24.7 85 1.9 ENE 4 11 2 6 1008.5 1008.3 19.4
17/12:00am 27.1 30.6 24.2 84 2.0 NE 13 20 7 11 1008.6 1008.4 19.4
 
Date/Time
CST
Temp
°C
App
Temp
°C
Dew
Point
°C
Rel
Hum
%
Delta-T
°C
Wind Press
QNH
hPa
Press
MSL
hPa
Rain since
9am
mm
Dir  Spd
km/h
Gust
km/h
Spd
kts
Gust
kts
16/11:30pm 26.9 31.5 23.8 83 2.1 ENE 6 11 3 6 1009.3 1009.1 19.4
16/11:00pm 26.9 29.3 24.2 85 1.9 NNE 19 28 10 15 1009.1 1008.9 19.4
16/10:33pm 27.8 30.7 24.4 82 2.4 NE 17 41 9 22 1009.4 1009.2 19.4
16/10:30pm 28.3 33.0 24.9 82 2.4 ENE 9 19 5 10 1009.3 1009.1 19.4
16/10:00pm 27.9 33.3 25.1 85 2.0 E 6 9 3 5 1009.3 1009.1 19.4
16/09:30pm 27.9 33.4 24.7 83 2.2 E 4 7 2 4 1009.2 1009.0 19.4
16/09:00pm 27.8 33.9 25.0 85 2.0 NE 2 6 1 3 1008.7 1008.5 19.4
16/08:30pm 28.3 33.4 24.7 81 2.5 ENE 6 11 3 6 1008.2 1008.0 19.4
16/08:00pm 27.9 33.9 24.9 84 2.1 E 2 6 1 3 1008.1 1007.9 19.4
16/07:30pm 27.9 33.4 24.1 80 2.6 E 2 4 1 2 1007.8 1007.6 19.4
16/07:00pm 28.4 33.9 24.0 77 3.0 E 2 6 1 3 1007.3 1007.1 19.4
16/06:30pm 28.9 33.5 23.8 74 3.5 E 6 9 3 5 1006.8 1006.6 19.4
16/06:00pm 29.2 33.1 22.9 69 4.3 ENE 7 11 4 6 1006.6 1006.4 19.4
16/05:30pm 29.5 33.7 23.2 69 4.3 ENE 6 9 3 5 1006.3 1006.1 19.4
16/05:00pm 29.4 33.8 23.4 70 4.1 ENE 6 9 3 5 1006.4 1006.2 19.4
16/04:30pm 28.6 33.8 24.8 80 2.7 NNE 6 9 3 5 1006.0 1005.8 19.4
16/04:00pm 28.4 31.9 23.5 75 3.4 N 11 20 6 11 1005.8 1005.6 19.4
16/03:30pm 28.4 32.9 24.6 80 2.7 NE 9 13 5 7 1006.3 1006.1 19.2
16/03:00pm 28.5 34.6 24.5 79 2.8 CALM 0 0 0 0 1006.9 1006.7 19.2
16/02:30pm 27.1 32.9 25.1 89 1.4 NW 4 6 2 3 1006.9 1006.7 19.2
16/02:00pm 25.9 28.3 20.9 74 3.3 E 9 20 5 11 1007.2 1007.0 17.0
16/01:59pm 26.1 29.0 21.7 77 2.9 E 9 20 5 11 1007.2 1007.0 16.4
16/01:30pm 31.1 35.1 22.7 61 5.8 W 6 9 3 5 1007.1 1006.9 0.0
16/01:00pm 31.5 35.7 23.1 61 5.8 SSW 6 9 3 5 1007.6 1007.4 0.0
16/12:30pm 31.2 35.7 23.6 64 5.3 SW 6 11 3 6 1007.9 1007.7 0.0
16/12:00pm 31.1 35.2 23.2 63 5.4 NW 7 11 4 6 1008.5 1008.3 0.0
16/11:30am 31.7 35.7 23.8 63 5.5 WNW 9 13 5 7 1008.9 1008.7 0.0
16/11:00am 30.6 34.9 24.3 69 4.4 NNE 9 20 5 11 1009.4 1009.2 0.0
16/10:30am 30.5 35.1 24.2 69 4.4 E 7 9 4 5 1009.6 1009.4 0.0
16/10:00am 30.7 34.7 23.1 64 5.2 E 7 9 4 5 1010.0 1009.8 0.0
16/09:30am 31.4 36.3 24.3 66 5.0 ESE 6 9 3 5 1010.0 1009.8 0.0
16/09:00am 30.4 35.0 23.8 68 4.6 ESE 6 9 3 5 1009.7 1009.5 1.2
16/08:30am 29.8 33.9 23.0 67 4.7 ESE 6 9 3 5 1009.2 1009.0 1.2
16/08:00am 29.4 33.9 22.9 68 4.4 SE 4 9 2 5 1008.6 1008.4 1.2
16/07:30am 27.7 32.2 23.7 79 2.8 SSE 6 9 3 5 1008.7 1008.5 1.2
16/07:00am 25.6 30.1 23.7 89 1.3 SE 6 7 3 4 1008.7 1008.5 1.2
16/06:30am 25.4 31.0 23.6 90 1.2 CALM 0 0 0 0 1008.7 1008.5 1.2
16/06:00am 25.4 30.2 23.5 89 1.3 SE 4 7 2 4 1008.5 1008.3 1.2
16/05:30am 25.9 30.6 23.4 86 1.7 SE 4 7 2 4 1008.1 1007.9 1.2
16/05:00am 26.9 31.5 23.8 83 2.1 E 6 13 3 7 1007.4 1007.2 1.2
16/04:30am 26.4 30.3 22.9 81 2.4 E 7 13 4 7 1006.9 1006.7 1.2
16/04:00am 26.3 29.9 23.0 82 2.2 E 9 15 5 8 1007.4 1007.2 1.2
16/03:30am 26.7 29.2 23.2 81 2.4 NE 15 26 8 14 1007.5 1007.3 1.2
16/03:00am 27.4 29.8 24.3 83 2.2 ENE 19 33 10 18 1007.6 1007.4 1.2
16/02:30am 29.1 32.3 24.4 76 3.3 NNE 15 22 8 12 1007.6 1007.4 1.2
16/02:00am 29.0 32.2 23.7 73 3.7 NNE 13 19 7 10 1008.0 1007.8 1.2
16/01:30am 29.2 33.1 24.3 75 3.4 NNE 11 17 6 9 1008.3 1008.1 1.2
16/01:00am 29.3 32.3 24.0 73 3.7 N 15 19 8 10 1008.4 1008.2 1.2
16/12:30am 29.3 32.4 24.2 74 3.5 NNE 15 20 8 11 1008.8 1008.6 1.2
16/12:00am 29.4 32.7 24.5 75 3.4 N 15 19 8 10 1008.5 1008.3 1.2
 
Date/Time
CST
Temp
°C
App
Temp
°C
Dew
Point
°C
Rel
Hum
%
Delta-T
°C
Wind Press
QNH
hPa
Press
MSL
hPa
Rain since
9am
mm
Dir  Spd
km/h
Gust
km/h
Spd
kts
Gust
kts
15/11:30pm 29.5 33.2 24.6 75 3.4 N 13 15 7 8 1008.8 1008.6 1.2
15/11:00pm 29.4 33.1 24.5 75 3.4 N 13 17 7 9 1008.9 1008.7 1.2
15/10:30pm 29.6 33.9 24.9 76 3.3 N 11 15 6 8 1008.9 1008.7 1.2
15/10:00pm 29.5 32.9 24.6 75 3.4 N 15 19 8 10 1008.6 1008.4 1.2
15/09:30pm 30.0 33.8 23.4 67 4.6 NNW 9 13 5 7 1008.5 1008.3 1.2
15/09:00pm 30.0 34.5 23.7 69 4.4 NNW 6 9 3 5 1008.3 1008.1 1.2
15/08:30pm 30.0 34.8 24.4 72 3.9 NNW 7 9 4 5 1008.2 1008.0 1.2
15/08:00pm 28.9 35.0 24.5 77 3.1 CALM 0 0 0 0 1007.8 1007.6 1.2
15/07:30pm 29.2 35.1 24.1 74 3.5 CALM 0 2 0 1 1007.5 1007.3 1.2
15/07:00pm 30.0 35.4 23.9 70 4.2 NW 2 6 1 3 1007.3 1007.1 1.2
15/06:30pm 30.4 34.7 23.3 66 4.9 NW 6 7 3 4 1007.0 1006.8 1.2

Latest Capital City Observations: Canberra | Sydney | Melbourne | Brisbane | Adelaide | Perth | Hobart | Darwin

Other Formats:

Comma delimited format used in spreadsheet applications
http://www.bom.gov.au/fwo/IDD60901/IDD60901.99510.axf

JavaScript Object Notation format (JSON) in row-major order
http://www.bom.gov.au/fwo/IDD60901/IDD60901.99510.json